createdAt,value
2018-09-30T00:01:38.856Z,43.63
2018-09-30T00:04:07.733Z,43.96
2018-09-30T00:06:36.608Z,44.55
2018-09-30T00:09:07.388Z,44.53
2018-09-30T00:11:36.221Z,44.42
2018-09-30T00:14:05.764Z,44.93
2018-09-30T00:16:34.972Z,44.61
2018-09-30T00:19:03.992Z,44.85
2018-09-30T00:21:38.448Z,45.59
2018-09-30T00:24:12.788Z,45.99
2018-09-30T00:26:46.664Z,45.52
2018-09-30T00:29:22.040Z,45.78
2018-09-30T00:31:50.898Z,45.71
2018-09-30T00:34:26.772Z,45.84
2018-09-30T00:36:57.615Z,46.07
2018-09-30T00:39:28.401Z,46.72
2018-09-30T00:41:57.184Z,46.47
2018-09-30T00:44:27.387Z,46.84
2018-09-30T00:46:56.196Z,47.73
2018-09-30T00:49:25.365Z,47.87
2018-09-30T00:51:54.182Z,47.58
2018-09-30T00:54:23.052Z,47.71
2018-09-30T00:56:51.920Z,48.42
2018-09-30T00:59:20.749Z,48.66
2018-09-30T01:01:49.572Z,49.04
2018-09-30T01:04:19.851Z,48.71
2018-09-30T01:06:48.648Z,48.41
2018-09-30T01:09:17.511Z,48.25
2018-09-30T01:11:46.743Z,48.79
2018-09-30T01:14:15.597Z,49.21
2018-09-30T01:16:44.408Z,49.42
2018-09-30T01:19:13.244Z,49.88
2018-09-30T01:21:42.069Z,49.72
2018-09-30T01:24:10.877Z,52.15
2018-09-30T01:26:39.746Z,51.85
2018-09-30T01:29:11.116Z,53.50
2018-09-30T01:31:39.977Z,52.77
2018-09-30T01:34:08.871Z,52.46
2018-09-30T01:36:38.072Z,52.35
2018-09-30T01:39:10.982Z,51.66
2018-09-30T01:41:39.785Z,52.91
2018-09-30T01:44:08.598Z,53.51
2018-09-30T01:46:37.429Z,53.82
2018-09-30T01:49:06.308Z,54.32
2018-09-30T01:51:35.160Z,57.20
2018-09-30T01:54:05.201Z,57.20
2018-09-30T01:56:34.079Z,56.06
2018-09-30T01:59:02.931Z,56.85
2018-09-30T02:01:31.745Z,57.56
2018-09-30T02:04:01.153Z,57.50
2018-09-30T02:06:29.973Z,58.62
2018-09-30T02:08:58.808Z,58.05
2018-09-30T02:11:27.689Z,57.82
2018-09-30T02:13:56.520Z,56.89
2018-09-30T02:16:25.333Z,56.59
2018-09-30T02:18:54.581Z,56.52
2018-09-30T02:21:23.399Z,56.97
2018-09-30T02:23:52.230Z,55.91
2018-09-30T02:26:21.479Z,55.73
2018-09-30T02:28:50.274Z,55.76
2018-09-30T02:31:24.497Z,55.74
2018-09-30T02:33:53.350Z,55.63
2018-09-30T02:36:22.264Z,55.53
2018-09-30T02:38:51.069Z,55.72
2018-09-30T02:41:23.190Z,56.00
2018-09-30T02:43:52.001Z,56.74
2018-09-30T02:46:20.877Z,56.73
2018-09-30T02:48:49.693Z,56.69
2018-09-30T02:51:18.547Z,56.63
2018-09-30T02:53:47.381Z,56.23
2018-09-30T02:56:16.556Z,55.63
2018-09-30T02:58:45.400Z,55.33
2018-09-30T03:01:14.275Z,54.09
2018-09-30T03:03:43.045Z,55.12
2018-09-30T03:06:16.383Z,55.43
2018-09-30T03:08:50.212Z,55.75
2018-09-30T03:11:19.528Z,56.18
2018-09-30T03:13:48.542Z,56.50
2018-09-30T03:16:17.360Z,56.96
2018-09-30T03:18:46.503Z,57.42
2018-09-30T03:21:15.328Z,57.59
2018-09-30T03:23:47.911Z,57.81
2018-09-30T03:26:16.720Z,58.25
2018-09-30T03:28:51.766Z,58.27
2018-09-30T03:31:20.612Z,58.40
2018-09-30T03:33:49.403Z,58.69
2018-09-30T03:36:20.211Z,58.77
2018-09-30T03:38:49.520Z,58.61
2018-09-30T03:41:18.343Z,58.76
2018-09-30T03:43:47.155Z,58.89
2018-09-30T03:46:15.957Z,58.15
2018-09-30T03:48:45.426Z,58.16
2018-09-30T03:51:14.685Z,57.99
2018-09-30T03:53:45.173Z,57.63
2018-09-30T03:56:13.991Z,57.42
2018-09-30T03:58:43.229Z,58.16
2018-09-30T04:01:12.055Z,57.82
2018-09-30T04:03:44.212Z,57.97
2018-09-30T04:06:13.441Z,57.96
2018-09-30T04:08:42.367Z,58.42
2018-09-30T04:11:11.240Z,58.10
2018-09-30T04:13:51.453Z,58.65
2018-09-30T04:16:20.288Z,58.45
2018-09-30T04:21:29.110Z,58.01
2018-09-30T04:24:07.877Z,58.44
2018-09-30T04:26:37.321Z,58.31
2018-09-30T04:29:06.358Z,58.77
2018-09-30T04:31:41.721Z,59.07
2018-09-30T04:34:10.621Z,59.17
2018-09-30T04:36:39.425Z,59.08
2018-09-30T04:39:20.076Z,59.48
2018-09-30T04:41:48.895Z,59.89
2018-09-30T04:44:18.100Z,60.59
2018-09-30T04:46:47.069Z,60.51
2018-09-30T04:49:18.959Z,60.18
2018-09-30T04:51:48.200Z,59.82
2018-09-30T04:54:17.147Z,60.12
2018-09-30T04:56:46.159Z,60.51
2018-09-30T04:59:15.432Z,60.45
2018-09-30T05:01:44.622Z,61.11
2018-09-30T05:04:13.444Z,60.54
2018-09-30T05:06:42.607Z,60.46
2018-09-30T05:09:11.575Z,60.96
2018-09-30T05:11:40.383Z,60.97
2018-09-30T05:14:09.324Z,61.22
2018-09-30T05:16:45.213Z,61.51
2018-09-30T05:19:14.037Z,61.63
2018-09-30T05:21:42.864Z,61.82
2018-09-30T05:24:11.671Z,61.95
2018-09-30T05:26:40.817Z,62.64
2018-09-30T05:29:09.630Z,62.50
2018-09-30T05:31:38.456Z,62.74
2018-09-30T05:34:07.618Z,63.05
2018-09-30T05:36:36.465Z,62.65
2018-09-30T05:39:07.480Z,62.70
2018-09-30T05:41:39.558Z,62.57
2018-09-30T05:44:09.386Z,62.56
2018-09-30T05:46:38.410Z,62.35
2018-09-30T05:49:07.536Z,62.18
2018-09-30T05:51:36.991Z,62.58
2018-09-30T05:54:05.940Z,62.59
2018-09-30T05:56:41.599Z,62.89
2018-09-30T05:59:10.616Z,62.64
2018-09-30T06:01:39.525Z,62.62
2018-09-30T06:04:09.324Z,63.00
2018-09-30T06:06:38.255Z,63.20
2018-09-30T06:09:10.559Z,62.73
2018-09-30T06:11:43.949Z,62.90
2018-09-30T06:14:13.282Z,62.40
2018-09-30T06:16:42.169Z,61.92
2018-09-30T06:19:11.538Z,61.20
2018-09-30T06:21:41.120Z,61.61
2018-09-30T06:24:10.969Z,61.50
2018-09-30T06:26:40.951Z,61.34
2018-09-30T06:29:10.970Z,61.17
2018-09-30T06:31:41.571Z,61.18
2018-09-30T06:34:10.464Z,60.93
2018-09-30T06:36:39.239Z,60.50
2018-09-30T06:39:10.616Z,59.94
2018-09-30T06:44:23.327Z,61.79
2018-09-30T06:46:52.169Z,61.78
2018-09-30T06:49:22.277Z,61.85
2018-09-30T06:51:51.158Z,61.47
2018-09-30T06:54:20.075Z,61.13
2018-09-30T06:56:48.922Z,60.93
2018-09-30T06:59:17.833Z,59.53
2018-09-30T07:01:46.663Z,58.65
2018-09-30T07:04:15.790Z,57.74
2018-09-30T07:06:44.649Z,57.02
2018-09-30T07:09:15.237Z,57.01
2018-09-30T07:11:44.489Z,56.27
2018-09-30T07:14:13.353Z,55.68
2018-09-30T07:16:42.244Z,55.26
2018-09-30T07:19:11.519Z,55.41
2018-09-30T07:21:40.363Z,55.52
2018-09-30T07:24:09.240Z,54.74
2018-09-30T07:26:38.505Z,55.16
2018-09-30T07:29:07.446Z,54.57
2018-09-30T07:31:36.459Z,55.14
2018-09-30T07:34:06.126Z,55.27
2018-09-30T07:36:35.279Z,55.33
2018-09-30T07:39:05.024Z,55.40
2018-09-30T07:41:45.101Z,55.60
2018-09-30T07:46:53.769Z,55.41
2018-09-30T07:49:27.371Z,54.41
2018-09-30T07:51:56.256Z,53.51
2018-09-30T07:54:25.441Z,53.14
2018-09-30T07:56:54.293Z,52.21
2018-09-30T07:59:23.254Z,50.96
2018-09-30T08:02:04.214Z,49.77
2018-09-30T08:04:33.081Z,47.35
2018-09-30T08:07:02.604Z,45.83
2018-09-30T08:09:37.283Z,44.61
2018-09-30T08:12:06.157Z,44.26
2018-09-30T08:14:37.793Z,45.02
2018-09-30T08:17:11.520Z,43.46
2018-09-30T08:19:40.441Z,42.56
2018-09-30T08:22:09.675Z,42.13
2018-09-30T08:24:38.606Z,41.86
2018-09-30T08:27:17.115Z,41.57
2018-09-30T08:32:21.846Z,42.81
2018-09-30T08:34:55.451Z,42.88
2018-09-30T08:37:29.761Z,41.86
2018-09-30T08:40:07.900Z,40.98
2018-09-30T08:42:37.237Z,41.44
2018-09-30T08:47:46.126Z,38.72
2018-09-30T08:50:15.431Z,38.16
2018-09-30T08:52:44.278Z,40.03
2018-09-30T08:55:18.417Z,39.82
2018-09-30T08:57:47.705Z,40.00
2018-09-30T09:00:16.617Z,40.79
2018-09-30T09:02:45.564Z,40.20
2018-09-30T09:05:14.914Z,41.39
2018-09-30T09:07:44.995Z,41.04
2018-09-30T09:10:14.259Z,40.62
2018-09-30T09:12:43.485Z,38.93
2018-09-30T09:15:12.379Z,38.93
2018-09-30T09:17:41.290Z,37.93
2018-09-30T09:20:10.579Z,39.58
2018-09-30T09:22:39.467Z,39.38
2018-09-30T09:25:08.578Z,40.52
2018-09-30T09:27:39.169Z,41.20
2018-09-30T09:30:08.094Z,40.13
2018-09-30T09:32:37.537Z,39.46
2018-09-30T09:35:14.615Z,38.31
2018-09-30T09:37:43.449Z,37.62
2018-09-30T09:40:12.388Z,36.67
2018-09-30T09:42:41.785Z,37.18
2018-09-30T09:45:10.660Z,35.75
2018-09-30T09:47:45.614Z,35.42
2018-09-30T09:50:14.837Z,34.06
2018-09-30T09:52:43.717Z,34.14
2018-09-30T09:55:12.557Z,33.27
2018-09-30T09:57:41.830Z,33.09
2018-09-30T10:00:10.915Z,32.85
2018-09-30T10:02:43.512Z,33.28
2018-09-30T10:05:12.867Z,32.89
2018-09-30T10:07:41.641Z,31.60
2018-09-30T10:10:10.554Z,31.54
2018-09-30T10:12:39.744Z,30.87
2018-09-30T10:15:08.633Z,30.85
2018-09-30T10:17:37.703Z,31.01
2018-09-30T10:20:08.905Z,31.13
2018-09-30T10:22:36.872Z,31.05
2018-09-30T10:25:16.600Z,30.83
2018-09-30T10:27:48.875Z,29.64
2018-09-30T10:30:17.731Z,28.52
2018-09-30T10:32:46.705Z,29.19
2018-09-30T10:35:15.827Z,28.63
2018-09-30T10:37:44.821Z,28.89
2018-09-30T10:40:24.607Z,28.17
2018-09-30T10:42:53.808Z,29.42
2018-09-30T10:45:22.661Z,29.46
2018-09-30T10:47:51.530Z,29.40
2018-09-30T10:50:20.832Z,29.43
2018-09-30T10:52:49.667Z,28.79
2018-09-30T10:55:18.722Z,27.98
2018-09-30T10:57:47.927Z,28.21
2018-09-30T11:00:16.847Z,29.26
2018-09-30T11:02:45.763Z,28.90
2018-09-30T11:05:20.411Z,28.70
2018-09-30T11:07:49.196Z,27.63
2018-09-30T11:10:18.035Z,27.47
2018-09-30T11:12:46.900Z,26.63
2018-09-30T11:15:15.829Z,27.38
2018-09-30T11:17:45.422Z,28.09
2018-09-30T11:20:14.384Z,27.71
2018-09-30T11:22:46.296Z,26.97
2018-09-30T11:25:15.514Z,26.23
2018-09-30T11:27:44.422Z,26.98
2018-09-30T11:30:14.874Z,26.90
2018-09-30T11:32:44.075Z,26.52
2018-09-30T11:35:13.053Z,27.58
2018-09-30T11:37:41.950Z,27.19
2018-09-30T11:40:11.312Z,27.20
2018-09-30T11:42:40.216Z,26.89
2018-09-30T11:45:15.144Z,26.37
2018-09-30T11:47:44.081Z,26.38
2018-09-30T11:50:12.945Z,25.78
2018-09-30T11:52:42.302Z,26.04
2018-09-30T11:55:11.229Z,25.40
2018-09-30T11:57:40.373Z,26.27
2018-09-30T12:00:09.280Z,25.37
2018-09-30T12:02:38.197Z,24.43
2018-09-30T12:05:07.644Z,23.92
2018-09-30T12:07:37.696Z,22.83
2018-09-30T12:10:06.836Z,23.62
2018-09-30T12:12:38.725Z,23.58
2018-09-30T12:15:07.836Z,23.18
2018-09-30T12:17:37.219Z,22.82
2018-09-30T12:20:06.688Z,23.10
2018-09-30T12:22:37.956Z,22.64
2018-09-30T12:25:06.880Z,22.71
2018-09-30T12:27:37.959Z,21.51
2018-09-30T12:30:07.389Z,21.24
2018-09-30T12:32:37.905Z,20.99
2018-09-30T12:35:06.989Z,20.37
2018-09-30T12:37:36.228Z,21.33
2018-09-30T12:40:05.899Z,20.37
2018-09-30T12:42:40.765Z,21.19
2018-09-30T12:45:09.971Z,21.22
2018-09-30T12:47:39.752Z,20.56
2018-09-30T12:50:08.719Z,19.87
2018-09-30T12:52:38.161Z,20.51
2018-09-30T12:55:07.636Z,20.06
2018-09-30T12:57:36.689Z,19.71
2018-09-30T13:00:08.454Z,19.72
2018-09-30T13:02:38.071Z,20.28
2018-09-30T13:05:07.724Z,20.39
2018-09-30T13:07:40.344Z,21.92
2018-09-30T13:10:09.248Z,20.67
2018-09-30T13:12:39.265Z,20.21
2018-09-30T13:15:08.668Z,20.87
2018-09-30T13:17:37.558Z,20.72
2018-09-30T13:20:09.656Z,20.37
2018-09-30T13:22:39.341Z,20.34
2018-09-30T13:25:08.540Z,20.56
2018-09-30T13:27:43.447Z,19.96
2018-09-30T13:30:19.145Z,20.32
2018-09-30T13:32:48.941Z,19.78
2018-09-30T13:35:17.884Z,19.34
2018-09-30T13:37:46.853Z,19.93
2018-09-30T13:40:15.761Z,19.75
2018-09-30T13:54:31.140Z,20.31
2018-09-30T13:57:00.190Z,21.97
2018-09-30T13:59:29.536Z,21.31
2018-09-30T14:01:59.844Z,22.37
2018-09-30T14:04:31.794Z,22.93
2018-09-30T14:07:01.964Z,21.62
2018-09-30T14:09:31.175Z,21.86
2018-09-30T14:12:00.174Z,20.96
2018-09-30T14:14:29.589Z,22.58
2018-09-30T14:16:58.613Z,21.69
2018-09-30T14:19:27.604Z,22.96
2018-09-30T14:21:57.090Z,22.69
2018-09-30T14:24:26.074Z,22.74
2018-09-30T14:26:55.016Z,23.18
2018-09-30T14:29:24.285Z,23.83
2018-09-30T14:31:53.300Z,23.35
2018-09-30T14:34:22.314Z,23.05
2018-09-30T14:36:51.720Z,23.08
2018-09-30T14:39:20.687Z,23.69
2018-09-30T14:41:49.665Z,24.05
2018-09-30T14:44:19.137Z,23.52
2018-09-30T14:46:48.056Z,24.04
2018-09-30T14:49:17.079Z,23.08
2018-09-30T14:51:46.376Z,23.52
2018-09-30T14:54:15.525Z,24.19
2018-09-30T14:56:44.487Z,22.97
2018-09-30T14:59:13.955Z,24.68
2018-09-30T15:01:43.081Z,24.64
2018-09-30T15:04:12.216Z,24.54
2018-09-30T15:06:41.818Z,25.65
2018-09-30T15:09:12.068Z,24.71
2018-09-30T15:11:41.489Z,25.46
2018-09-30T15:16:56.810Z,24.77
2018-09-30T15:19:26.582Z,25.46
2018-09-30T15:21:55.690Z,24.95
2018-09-30T15:24:24.990Z,25.19
2018-09-30T15:26:54.562Z,25.66
2018-09-30T15:29:23.846Z,25.79
2018-09-30T15:31:58.336Z,26.21
2018-09-30T15:34:29.774Z,26.07
2018-09-30T15:37:06.306Z,26.37
2018-09-30T15:39:35.880Z,25.68
2018-09-30T15:42:05.846Z,25.79
2018-09-30T15:44:35.208Z,26.31
2018-09-30T15:47:05.076Z,26.43
2018-09-30T15:49:34.451Z,26.53
2018-09-30T15:52:04.704Z,27.83
2018-09-30T15:54:34.469Z,28.22
2018-09-30T15:57:04.075Z,28.13
2018-09-30T15:59:33.364Z,28.12
2018-09-30T16:02:04.355Z,28.49
2018-09-30T16:04:33.951Z,29.11
2018-09-30T16:07:03.462Z,29.49
2018-09-30T16:09:32.772Z,30.46
2018-09-30T16:12:03.857Z,30.86
2018-09-30T16:14:33.652Z,31.08
2018-09-30T16:17:03.183Z,32.02
2018-09-30T16:19:32.731Z,31.57
2018-09-30T16:24:26.972Z,32.22
2018-09-30T16:26:59.075Z,33.29
2018-09-30T16:29:28.851Z,33.80
2018-09-30T16:31:58.201Z,34.57
2018-09-30T16:34:27.605Z,35.09
2018-09-30T16:36:57.615Z,35.26
2018-09-30T16:39:28.928Z,35.50
2018-09-30T16:41:58.335Z,35.84
2018-09-30T16:44:28.150Z,36.54
2018-09-30T16:46:57.461Z,36.24
2018-09-30T16:49:27.296Z,36.40
2018-09-30T16:51:56.959Z,37.25
2018-09-30T16:54:26.618Z,37.82
2018-09-30T16:56:56.297Z,38.03
2018-09-30T16:59:26.087Z,38.99
2018-09-30T17:01:56.366Z,38.63
2018-09-30T17:04:25.716Z,38.97
2018-09-30T17:06:55.426Z,38.99
2018-09-30T17:09:24.711Z,38.59
2018-09-30T17:11:54.097Z,39.26
2018-09-30T17:14:23.887Z,39.22
2018-09-30T17:16:54.405Z,39.73
2018-09-30T17:19:23.765Z,40.21
2018-09-30T17:21:54.857Z,39.79
2018-09-30T17:24:25.166Z,40.56
2018-09-30T17:26:55.426Z,39.49
2018-09-30T17:29:25.095Z,40.39
2018-09-30T17:31:54.565Z,40.30
2018-09-30T17:34:24.115Z,40.74
2018-09-30T17:36:54.124Z,41.38
2018-09-30T17:39:23.481Z,41.06
2018-09-30T17:41:53.840Z,40.95
2018-09-30T17:44:30.019Z,41.60
2018-09-30T17:46:59.429Z,41.56
2018-09-30T17:49:29.165Z,41.04
2018-09-30T17:51:58.551Z,42.44
2018-09-30T17:54:28.043Z,41.77
2018-09-30T17:56:58.627Z,41.73
2018-09-30T17:59:28.655Z,42.02
2018-09-30T18:01:58.157Z,42.27
2018-09-30T18:04:28.270Z,41.90
2018-09-30T18:06:57.568Z,42.80
2018-09-30T18:09:27.381Z,43.20
2018-09-30T18:11:57.550Z,43.57
2018-09-30T18:14:26.864Z,43.29
2018-09-30T18:16:57.007Z,43.43
2018-09-30T18:19:26.837Z,43.59
2018-09-30T18:21:56.236Z,43.57
2018-09-30T18:24:26.150Z,44.24
2018-09-30T18:26:56.175Z,43.80
2018-09-30T18:29:26.602Z,43.67
2018-09-30T18:31:57.191Z,44.25
2018-09-30T18:34:27.064Z,44.21
2018-09-30T18:36:56.444Z,44.66
2018-09-30T18:39:26.392Z,43.98
2018-09-30T18:41:56.588Z,44.28
2018-09-30T18:44:26.997Z,44.54
2018-09-30T18:46:56.604Z,44.56
2018-09-30T18:49:27.326Z,44.01
2018-09-30T18:51:57.716Z,43.52
2018-09-30T18:54:27.078Z,43.80
2018-09-30T18:56:57.114Z,43.97
2018-09-30T18:59:26.441Z,43.14
2018-09-30T19:01:56.645Z,44.20
2018-09-30T19:04:26.375Z,43.56
2018-09-30T19:06:55.825Z,43.80
2018-09-30T19:09:25.173Z,44.08
2018-09-30T19:11:55.005Z,43.70
2018-09-30T19:14:24.445Z,43.79
2018-09-30T19:16:54.837Z,43.26
2018-09-30T19:19:25.767Z,43.81
2018-09-30T19:21:55.225Z,44.52
2018-09-30T19:24:24.615Z,44.19
2018-09-30T19:26:55.293Z,44.37
2018-09-30T19:29:24.699Z,44.27
2018-09-30T19:31:54.249Z,44.90
2018-09-30T19:36:58.905Z,44.16
2018-09-30T19:39:28.262Z,43.94
2018-09-30T19:41:59.405Z,44.69
2018-09-30T19:44:28.808Z,44.40
2018-09-30T19:46:59.486Z,44.42
2018-09-30T19:49:31.278Z,43.78
2018-09-30T19:52:02.723Z,44.71
2018-09-30T19:54:33.688Z,44.74
2018-09-30T19:57:04.135Z,44.67
2018-09-30T20:00:05.180Z,44.49
2018-09-30T20:02:35.061Z,45.44
2018-09-30T20:05:06.836Z,45.31
2018-09-30T20:07:37.240Z,45.44
2018-09-30T20:10:09.690Z,45.21
2018-09-30T20:12:41.865Z,45.62
2018-09-30T20:15:12.367Z,46.19
2018-09-30T20:17:43.771Z,46.00
2018-09-30T20:20:16.976Z,46.38
2018-09-30T20:22:48.813Z,46.36
2018-09-30T20:25:22.116Z,46.57
2018-09-30T20:27:52.582Z,46.83
2018-09-30T20:30:22.601Z,46.60
2018-09-30T20:32:53.149Z,47.61
2018-09-30T20:35:25.100Z,49.01
2018-09-30T20:37:55.544Z,50.75
2018-09-30T20:40:25.664Z,50.38
2018-09-30T20:42:55.385Z,50.95
2018-09-30T20:45:25.276Z,51.14
2018-09-30T20:47:55.321Z,51.28
2018-09-30T20:50:24.849Z,50.71
2018-09-30T20:52:54.698Z,51.21
2018-09-30T20:55:25.189Z,51.50
2018-09-30T20:57:55.777Z,51.08
2018-09-30T21:00:26.620Z,51.23
2018-09-30T21:02:57.156Z,50.26
2018-09-30T21:06:34.008Z,50.80
2018-09-30T21:09:05.457Z,50.50
2018-09-30T21:11:35.207Z,51.78
2018-09-30T21:14:05.709Z,51.44
2018-09-30T21:16:35.839Z,51.54
2018-09-30T21:19:06.606Z,52.05
2018-09-30T21:21:36.121Z,51.69
2018-09-30T21:24:05.797Z,52.04
2018-09-30T21:26:35.211Z,52.20
2018-09-30T21:29:05.241Z,50.96
2018-09-30T21:31:34.106Z,51.11
2018-09-30T21:34:04.898Z,51.42
2018-09-30T21:36:35.086Z,51.23
2018-09-30T21:39:04.173Z,50.66
2018-09-30T21:41:33.046Z,51.47
2018-09-30T21:44:03.134Z,51.05
2018-09-30T21:46:31.997Z,51.08
2018-09-30T21:49:00.946Z,51.51
2018-09-30T21:51:30.212Z,51.10
2018-09-30T21:53:59.060Z,51.32
2018-09-30T21:56:27.920Z,50.92
2018-09-30T21:58:57.205Z,51.32
2018-09-30T22:01:26.145Z,51.33
2018-09-30T22:03:54.960Z,50.85
2018-09-30T22:06:23.830Z,51.33
2018-09-30T22:08:52.724Z,51.51
2018-09-30T22:11:22.036Z,51.30
2018-09-30T22:13:50.933Z,50.74
2018-09-30T22:16:19.811Z,51.16
2018-09-30T22:18:49.129Z,50.93
2018-09-30T22:21:17.988Z,50.95
2018-09-30T22:23:46.820Z,50.23
2018-09-30T22:26:16.017Z,49.71
2018-09-30T22:28:44.900Z,49.55
2018-09-30T22:31:13.740Z,49.33
2018-09-30T22:33:42.917Z,49.13
2018-09-30T22:36:11.738Z,49.29
2018-09-30T22:38:40.593Z,49.44
2018-09-30T22:41:09.847Z,48.92
2018-09-30T22:43:38.669Z,49.66
2018-09-30T22:46:07.562Z,49.53
2018-09-30T22:48:36.970Z,49.43
2018-09-30T22:51:05.911Z,49.83
2018-09-30T22:53:34.833Z,48.96
2018-09-30T22:56:05.070Z,48.89
2018-09-30T22:58:33.952Z,48.98
2018-09-30T23:01:02.857Z,48.29
2018-09-30T23:03:32.130Z,48.58
2018-09-30T23:06:01.034Z,48.31
2018-09-30T23:08:29.952Z,48.30
2018-09-30T23:10:59.317Z,46.66
2018-09-30T23:13:28.242Z,45.96
2018-09-30T23:15:57.136Z,46.31
2018-09-30T23:18:26.526Z,46.13
2018-09-30T23:20:55.395Z,45.66
2018-09-30T23:23:24.277Z,45.68
2018-09-30T23:25:53.601Z,45.59
2018-09-30T23:28:22.441Z,46.05
2018-09-30T23:30:51.307Z,45.58
2018-09-30T23:33:20.628Z,45.50
2018-09-30T23:35:49.502Z,45.96
2018-09-30T23:38:18.340Z,45.76
2018-09-30T23:40:47.538Z,46.03
2018-09-30T23:43:16.367Z,45.84
2018-09-30T23:45:45.193Z,46.00
2018-09-30T23:48:14.621Z,46.47
2018-09-30T23:50:43.436Z,46.49
2018-09-30T23:53:12.302Z,46.13
2018-09-30T23:55:41.742Z,45.95
2018-09-30T23:58:13.597Z,45.95
